createdAt,value
2023-03-31T00:01:14.243Z,25.38
2023-03-31T00:03:44.535Z,24.65
2023-03-31T00:06:18.682Z,24.98
2023-03-31T00:08:51.897Z,27.02
2023-03-31T00:13:49.998Z,23.95
2023-03-31T00:16:18.329Z,24.70
2023-03-31T00:18:47.886Z,25.02
2023-03-31T00:21:25.076Z,25.33
2023-03-31T00:23:58.569Z,25.35
2023-03-31T00:26:28.057Z,25.30
2023-03-31T00:28:57.457Z,24.20
2023-03-31T00:31:27.596Z,24.55
2023-03-31T00:33:56.553Z,23.58
2023-03-31T00:36:28.603Z,25.88
2023-03-31T00:39:02.657Z,26.10
2023-03-31T00:41:31.132Z,24.98
2023-03-31T00:44:10.442Z,26.45
2023-03-31T00:46:58.069Z,25.17
2023-03-31T00:49:34.202Z,24.08
2023-03-31T00:52:15.092Z,24.73
2023-03-31T00:54:47.678Z,25.23
2023-03-31T00:57:16.639Z,25.93
2023-03-31T00:59:49.494Z,25.02
2023-03-31T01:02:20.713Z,24.50
2023-03-31T01:05:02.204Z,24.27
2023-03-31T01:07:42.559Z,24.20
2023-03-31T01:10:12.113Z,24.33
2023-03-31T01:12:43.872Z,23.80
2023-03-31T01:15:13.218Z,25.13
2023-03-31T01:17:45.043Z,24.55
2023-03-31T01:20:34.606Z,25.88
2023-03-31T01:23:36.252Z,25.30
2023-03-31T01:26:10.824Z,24.45
2023-03-31T01:29:12.916Z,25.45
2023-03-31T01:32:16.389Z,24.80
2023-03-31T01:35:06.732Z,26.30
2023-03-31T01:38:11.037Z,23.70
2023-03-31T01:41:05.886Z,24.70
2023-03-31T01:44:08.317Z,25.38
2023-03-31T01:46:48.275Z,25.13
2023-03-31T01:49:35.715Z,25.77
2023-03-31T01:52:27.164Z,27.70
2023-03-31T01:54:59.862Z,24.55
2023-03-31T01:58:05.527Z,26.77
2023-03-31T02:00:51.957Z,25.63
2023-03-31T02:03:29.550Z,26.55
2023-03-31T02:06:04.172Z,27.02
2023-03-31T02:08:47.648Z,24.77
2023-03-31T02:11:16.881Z,26.50
2023-03-31T02:13:49.351Z,24.92
2023-03-31T02:16:24.547Z,25.05
2023-03-31T02:19:02.441Z,25.52
2023-03-31T02:21:34.292Z,26.05
2023-03-31T02:24:11.886Z,26.88
2023-03-31T02:27:10.706Z,27.08
2023-03-31T02:29:38.990Z,26.23
2023-03-31T02:32:14.128Z,25.55
2023-03-31T02:34:42.889Z,25.55
2023-03-31T02:37:12.730Z,26.98
2023-03-31T02:39:44.772Z,26.00
2023-03-31T02:42:13.581Z,26.92
2023-03-31T02:44:43.712Z,25.98
2023-03-31T02:47:17.974Z,29.45
2023-03-31T02:49:59.063Z,28.23
2023-03-31T02:52:29.931Z,26.73
2023-03-31T02:55:20.304Z,26.83
2023-03-31T02:58:03.649Z,28.02
2023-03-31T03:00:41.382Z,28.17
2023-03-31T03:03:21.564Z,28.48
2023-03-31T03:06:08.353Z,26.55
2023-03-31T03:09:08.842Z,27.42
2023-03-31T03:11:57.472Z,28.15
2023-03-31T03:14:32.988Z,26.77
2023-03-31T03:17:13.489Z,29.10
2023-03-31T03:19:42.654Z,27.50
2023-03-31T03:22:10.876Z,28.65
2023-03-31T03:24:39.937Z,29.67
2023-03-31T03:27:08.086Z,29.35
2023-03-31T03:29:39.294Z,28.42
2023-03-31T03:32:07.372Z,29.30
2023-03-31T03:34:35.759Z,28.42
2023-03-31T03:37:03.886Z,28.10
2023-03-31T03:39:32.362Z,28.15
2023-03-31T03:42:00.893Z,29.85
2023-03-31T03:44:29.041Z,29.15
2023-03-31T03:47:03.012Z,28.10
2023-03-31T03:49:31.129Z,28.73
2023-03-31T03:51:59.229Z,27.75
2023-03-31T03:54:27.400Z,29.23
2023-03-31T03:56:55.772Z,29.20
2023-03-31T03:59:24.606Z,27.92
2023-03-31T04:01:52.864Z,28.30
2023-03-31T04:04:21.091Z,27.17
2023-03-31T04:06:49.259Z,29.83
2023-03-31T04:09:17.526Z,27.55
2023-03-31T04:11:45.685Z,26.98
2023-03-31T04:14:13.884Z,28.90
2023-03-31T04:16:42.723Z,27.63
2023-03-31T04:19:13.249Z,27.55
2023-03-31T04:21:45.257Z,27.88
2023-03-31T04:24:33.328Z,28.90
2023-03-31T04:27:03.027Z,28.08
2023-03-31T04:29:33.831Z,29.85
2023-03-31T04:32:02.838Z,30.48
2023-03-31T04:34:36.781Z,29.63
2023-03-31T04:37:05.245Z,29.70
2023-03-31T04:39:33.335Z,29.90
2023-03-31T04:42:01.943Z,29.92
2023-03-31T04:44:30.387Z,31.00
2023-03-31T04:46:59.102Z,29.98
2023-03-31T04:49:28.444Z,30.02
2023-03-31T04:51:56.590Z,31.23
2023-03-31T04:54:24.693Z,31.60
2023-03-31T04:56:52.863Z,30.88
2023-03-31T04:59:20.990Z,31.67
2023-03-31T05:01:49.226Z,30.77
2023-03-31T05:04:17.519Z,28.45
2023-03-31T05:06:45.649Z,29.48
2023-03-31T05:09:13.886Z,31.38
2023-03-31T05:11:42.164Z,31.63
2023-03-31T05:14:10.284Z,32.85
2023-03-31T05:16:39.689Z,30.90
2023-03-31T05:19:10.957Z,29.52
2023-03-31T05:21:39.101Z,29.65
2023-03-31T05:24:07.520Z,29.17
2023-03-31T05:26:35.932Z,29.50
2023-03-31T05:29:04.022Z,32.72
2023-03-31T05:31:34.848Z,28.45
2023-03-31T05:34:03.028Z,30.88
2023-03-31T05:36:32.280Z,31.88
2023-03-31T05:39:00.680Z,33.08
2023-03-31T05:41:28.865Z,31.98
2023-03-31T05:43:57.024Z,30.88
2023-03-31T05:46:25.251Z,33.25
2023-03-31T05:48:53.546Z,34.92
2023-03-31T05:51:23.446Z,32.95
2023-03-31T05:53:51.784Z,33.40
2023-03-31T05:56:19.982Z,34.63
2023-03-31T05:58:48.194Z,32.25
2023-03-31T06:01:22.989Z,31.27
2023-03-31T06:03:51.993Z,31.42
2023-03-31T06:06:20.383Z,32.42
2023-03-31T06:08:49.770Z,32.70
2023-03-31T06:11:19.994Z,33.10
2023-03-31T06:13:49.628Z,33.08
2023-03-31T06:16:19.006Z,31.55
2023-03-31T06:18:47.196Z,31.83
2023-03-31T06:21:17.857Z,32.35
2023-03-31T06:23:46.791Z,32.90
2023-03-31T06:26:17.716Z,31.33
2023-03-31T06:28:46.822Z,32.15
2023-03-31T06:31:18.072Z,32.42
2023-03-31T06:33:47.046Z,34.10
2023-03-31T06:36:17.777Z,34.05
2023-03-31T06:38:46.313Z,32.05
2023-03-31T06:41:16.154Z,32.03
2023-03-31T06:43:44.884Z,32.97
2023-03-31T06:46:13.878Z,35.08
2023-03-31T06:48:42.479Z,33.92
2023-03-31T06:51:11.000Z,33.75
2023-03-31T06:53:39.190Z,34.80
2023-03-31T06:56:08.010Z,34.58
2023-03-31T06:58:36.657Z,33.25
2023-03-31T07:01:06.939Z,33.92
2023-03-31T07:03:35.877Z,33.15
2023-03-31T07:06:04.576Z,32.88
2023-03-31T07:08:33.112Z,32.38
2023-03-31T07:11:02.167Z,31.85
2023-03-31T07:13:30.352Z,33.42
2023-03-31T07:15:58.622Z,34.38
2023-03-31T07:18:34.340Z,34.53
2023-03-31T07:21:07.219Z,33.10
2023-03-31T07:23:38.026Z,31.67
2023-03-31T07:26:09.095Z,32.63
2023-03-31T07:28:37.345Z,35.85
2023-03-31T07:31:12.186Z,34.38
2023-03-31T07:33:41.006Z,33.58
2023-03-31T07:36:13.497Z,31.67
2023-03-31T07:38:46.834Z,29.27
2023-03-31T07:41:20.566Z,28.48
2023-03-31T07:43:49.222Z,29.35
2023-03-31T07:46:21.976Z,29.20
2023-03-31T07:48:50.959Z,30.50
2023-03-31T07:51:22.383Z,30.92
2023-03-31T07:53:52.399Z,29.98
2023-03-31T07:56:23.309Z,29.60
2023-03-31T07:58:54.464Z,29.80
2023-03-31T08:01:26.266Z,28.02
2023-03-31T08:03:55.640Z,28.48
2023-03-31T08:06:26.031Z,28.05
2023-03-31T08:08:54.368Z,27.10
2023-03-31T08:11:22.776Z,26.95
2023-03-31T08:13:51.117Z,25.83
2023-03-31T08:16:19.350Z,25.77
2023-03-31T08:18:47.772Z,24.40
2023-03-31T08:21:16.307Z,23.45
2023-03-31T08:23:44.400Z,24.77
2023-03-31T08:26:21.833Z,23.45
2023-03-31T08:28:50.449Z,22.90
2023-03-31T08:31:21.421Z,23.00
2023-03-31T08:33:49.786Z,22.30
2023-03-31T08:36:18.356Z,22.98
2023-03-31T08:38:47.259Z,22.45
2023-03-31T08:41:53.025Z,22.55
2023-03-31T08:44:31.048Z,23.83
2023-03-31T08:47:02.579Z,22.98
2023-03-31T08:49:43.392Z,23.48
2023-03-31T08:52:24.818Z,23.27
2023-03-31T08:54:59.547Z,24.00
2023-03-31T08:57:54.958Z,24.08
2023-03-31T09:00:23.139Z,24.23
2023-03-31T09:03:17.529Z,26.33
2023-03-31T09:06:20.812Z,27.02
2023-03-31T09:08:48.907Z,24.77
2023-03-31T09:11:32.205Z,29.77
2023-03-31T09:14:06.298Z,27.02
2023-03-31T09:17:00.473Z,26.10
2023-03-31T09:19:38.753Z,27.05
2023-03-31T09:22:32.473Z,28.00
2023-03-31T09:25:06.289Z,28.85
2023-03-31T09:27:37.481Z,26.33
2023-03-31T09:30:05.929Z,27.50
2023-03-31T09:32:34.240Z,27.38
2023-03-31T09:35:17.026Z,29.85
2023-03-31T09:37:45.310Z,30.63
2023-03-31T09:40:23.249Z,30.10
2023-03-31T09:43:10.949Z,28.95
2023-03-31T09:45:39.166Z,28.98
2023-03-31T09:48:14.080Z,32.30
2023-03-31T09:50:50.887Z,30.65
2023-03-31T09:53:27.342Z,31.70
2023-03-31T09:56:00.945Z,33.75
2023-03-31T09:58:29.154Z,32.60
2023-03-31T10:01:03.439Z,32.42
2023-03-31T10:03:46.717Z,32.95
2023-03-31T10:06:16.217Z,34.47
2023-03-31T10:09:05.543Z,33.05
2023-03-31T10:11:33.874Z,33.22
2023-03-31T10:14:14.816Z,31.95
2023-03-31T10:16:50.515Z,31.10
2023-03-31T10:19:18.827Z,32.40
2023-03-31T10:21:49.550Z,32.33
2023-03-31T10:24:20.759Z,31.50
2023-03-31T10:26:53.265Z,30.08
2023-03-31T10:29:30.538Z,31.50
2023-03-31T10:32:20.268Z,31.30
2023-03-31T10:34:48.917Z,31.75
2023-03-31T10:37:22.924Z,30.38
2023-03-31T10:40:06.490Z,32.20
2023-03-31T10:42:35.007Z,30.90
2023-03-31T10:45:37.247Z,31.55
2023-03-31T10:48:17.695Z,32.67
2023-03-31T10:50:46.240Z,32.40
2023-03-31T10:53:15.903Z,30.95
2023-03-31T10:55:48.625Z,29.75
2023-03-31T10:58:26.548Z,30.92
2023-03-31T11:01:24.656Z,32.38
2023-03-31T11:04:10.553Z,31.65
2023-03-31T11:07:09.791Z,32.78
2023-03-31T11:09:47.113Z,30.75
2023-03-31T11:12:51.970Z,31.73
2023-03-31T11:15:28.400Z,31.60
2023-03-31T11:18:05.813Z,29.33
2023-03-31T11:21:04.266Z,30.30
2023-03-31T11:23:41.995Z,31.25
2023-03-31T11:26:31.326Z,31.25
2023-03-31T11:29:05.828Z,30.35
2023-03-31T11:31:37.341Z,28.50
2023-03-31T11:34:08.210Z,27.40
2023-03-31T11:36:58.716Z,28.60
2023-03-31T11:39:47.363Z,25.92
2023-03-31T11:42:32.165Z,24.52
2023-03-31T11:45:15.627Z,26.45
2023-03-31T11:47:47.146Z,25.10
2023-03-31T11:50:25.237Z,24.05
2023-03-31T11:53:21.250Z,21.85
2023-03-31T11:55:53.006Z,20.40
2023-03-31T11:58:37.878Z,18.10
2023-03-31T12:01:15.146Z,16.65
2023-03-31T12:03:55.096Z,14.23
2023-03-31T12:06:28.147Z,14.35
2023-03-31T12:08:59.289Z,14.05
2023-03-31T12:11:42.432Z,14.07
2023-03-31T12:14:29.765Z,14.80
2023-03-31T12:17:13.231Z,14.77
2023-03-31T12:19:53.503Z,15.65
2023-03-31T12:22:28.265Z,14.57
2023-03-31T12:24:56.902Z,14.18
2023-03-31T12:27:36.734Z,15.32
2023-03-31T12:30:06.710Z,18.02
2023-03-31T12:32:41.018Z,16.55
2023-03-31T12:35:25.492Z,15.57
2023-03-31T12:37:59.176Z,15.88
2023-03-31T12:41:00.570Z,15.35
2023-03-31T12:43:56.874Z,15.20
2023-03-31T12:46:42.859Z,17.05
2023-03-31T12:49:26.164Z,16.63
2023-03-31T12:52:22.325Z,18.13
2023-03-31T12:55:30.011Z,17.25
2023-03-31T12:58:32.346Z,16.25
2023-03-31T13:01:25.172Z,17.55
2023-03-31T13:04:28.444Z,17.00
2023-03-31T13:06:59.666Z,16.58
2023-03-31T13:09:46.688Z,17.60
2023-03-31T13:12:18.666Z,17.50
2023-03-31T13:14:49.506Z,18.10
2023-03-31T13:17:28.162Z,18.02
2023-03-31T13:20:17.371Z,17.02
2023-03-31T13:22:50.408Z,17.55
2023-03-31T13:25:30.804Z,16.67
2023-03-31T13:28:23.383Z,17.90
2023-03-31T13:30:53.857Z,17.15
2023-03-31T13:33:32.785Z,17.35
2023-03-31T13:36:17.675Z,18.38
2023-03-31T13:39:18.555Z,18.33
2023-03-31T13:41:47.004Z,17.90
2023-03-31T13:44:45.255Z,20.40
2023-03-31T13:47:41.364Z,17.15
2023-03-31T13:50:21.233Z,18.10
2023-03-31T13:53:04.196Z,18.90
2023-03-31T13:55:56.128Z,17.87
2023-03-31T13:58:36.164Z,17.17
2023-03-31T14:01:25.682Z,18.10
2023-03-31T14:04:24.395Z,16.90
2023-03-31T14:07:24.169Z,16.48
2023-03-31T14:09:54.111Z,17.85
2023-03-31T14:12:25.314Z,18.83
2023-03-31T14:14:54.857Z,17.67
2023-03-31T14:17:43.035Z,18.35
2023-03-31T14:20:53.668Z,19.95
2023-03-31T14:23:40.402Z,16.95
2023-03-31T14:26:35.464Z,15.43
2023-03-31T14:29:11.357Z,12.90
2023-03-31T14:31:54.975Z,13.60
2023-03-31T14:34:35.460Z,12.65
2023-03-31T14:37:11.353Z,14.23
2023-03-31T14:39:44.427Z,13.75
2023-03-31T14:42:18.720Z,12.88
2023-03-31T14:44:48.696Z,12.50
2023-03-31T14:47:20.769Z,14.05
2023-03-31T14:49:59.141Z,13.27
2023-03-31T14:52:33.534Z,12.45
2023-03-31T14:55:02.031Z,11.35
2023-03-31T14:57:35.368Z,12.52
2023-03-31T15:00:13.294Z,12.70
2023-03-31T15:02:44.074Z,12.63
2023-03-31T15:05:26.215Z,12.57
2023-03-31T15:07:58.404Z,12.98
2023-03-31T15:10:33.388Z,12.05
2023-03-31T15:13:09.451Z,11.63
2023-03-31T15:15:40.379Z,11.60
2023-03-31T15:18:18.000Z,11.15
2023-03-31T15:20:46.800Z,11.95
2023-03-31T15:23:27.513Z,11.45
2023-03-31T15:25:59.426Z,10.10
2023-03-31T15:28:37.335Z,10.45
2023-03-31T15:31:10.568Z,10.65
2023-03-31T15:33:43.701Z,10.93
2023-03-31T15:36:12.943Z,11.23
2023-03-31T15:38:41.667Z,11.77
2023-03-31T15:41:17.507Z,10.68
2023-03-31T15:44:02.866Z,10.05
2023-03-31T15:46:40.075Z,11.15
2023-03-31T15:49:22.002Z,11.93
2023-03-31T15:51:53.083Z,12.82
2023-03-31T15:54:33.013Z,12.18
2023-03-31T15:57:06.481Z,13.50
2023-03-31T15:59:55.297Z,14.48
2023-03-31T16:02:39.208Z,14.40
2023-03-31T16:05:13.756Z,15.18
2023-03-31T16:07:56.128Z,15.23
2023-03-31T16:10:26.733Z,17.77
2023-03-31T16:13:10.786Z,19.70
2023-03-31T16:15:49.855Z,18.40
2023-03-31T16:18:37.824Z,20.35
2023-03-31T16:21:08.996Z,17.73
2023-03-31T16:23:41.413Z,24.75
2023-03-31T16:26:10.716Z,52.92
2023-03-31T16:28:42.829Z,39.08
2023-03-31T16:31:28.648Z,23.92
2023-03-31T16:34:00.480Z,20.10
2023-03-31T16:36:29.237Z,19.92
2023-03-31T16:39:02.365Z,19.92
2023-03-31T16:46:52.973Z,21.42
2023-03-31T16:49:24.109Z,31.20
2023-03-31T16:51:52.743Z,27.15
2023-03-31T16:54:21.234Z,23.58
2023-03-31T16:56:49.445Z,22.13
2023-03-31T16:59:17.599Z,22.00
2023-03-31T17:01:46.328Z,20.65
2023-03-31T17:04:14.466Z,18.60
2023-03-31T17:06:42.652Z,19.05
2023-03-31T17:09:11.221Z,19.17
2023-03-31T17:11:42.215Z,20.58
2023-03-31T17:14:11.076Z,18.98
2023-03-31T17:16:48.136Z,19.20
2023-03-31T17:19:17.793Z,21.20
2023-03-31T17:21:46.750Z,20.92
2023-03-31T17:24:15.010Z,23.88
2023-03-31T17:26:45.307Z,25.95
2023-03-31T17:29:15.396Z,22.55
2023-03-31T17:31:44.776Z,24.33
2023-03-31T17:34:12.950Z,27.77
2023-03-31T17:36:44.215Z,25.67
2023-03-31T17:39:12.418Z,21.55
2023-03-31T17:41:40.839Z,19.52
2023-03-31T17:44:08.990Z,22.92
2023-03-31T17:46:38.204Z,25.35
2023-03-31T17:49:06.420Z,25.70
2023-03-31T17:51:35.776Z,22.30
2023-03-31T17:54:04.043Z,21.48
2023-03-31T17:56:32.232Z,21.73
2023-03-31T17:59:00.712Z,20.33
2023-03-31T18:01:28.969Z,19.55
2023-03-31T18:03:58.330Z,19.20
2023-03-31T18:06:27.816Z,19.55
2023-03-31T18:08:57.124Z,18.00
2023-03-31T18:11:26.001Z,18.52
2023-03-31T18:13:54.249Z,18.73
2023-03-31T18:16:22.461Z,17.58
2023-03-31T18:18:50.941Z,19.13
2023-03-31T18:21:19.639Z,18.80
2023-03-31T18:23:52.558Z,19.65
2023-03-31T18:26:21.970Z,20.60
2023-03-31T18:28:50.530Z,20.65
2023-03-31T18:31:19.311Z,19.45
2023-03-31T18:33:48.175Z,19.65
2023-03-31T18:36:19.153Z,19.05
2023-03-31T18:38:48.534Z,19.55
2023-03-31T18:41:17.817Z,19.08
2023-03-31T18:43:47.634Z,19.65
2023-03-31T18:46:15.764Z,20.00
2023-03-31T18:48:44.796Z,19.45
2023-03-31T18:51:14.645Z,19.35
2023-03-31T18:53:42.869Z,19.02
2023-03-31T18:56:11.151Z,19.42
2023-03-31T18:58:39.316Z,20.17
2023-03-31T19:01:07.475Z,17.40
2023-03-31T19:03:35.700Z,18.60
2023-03-31T19:06:06.768Z,18.13
2023-03-31T19:08:34.919Z,18.42
2023-03-31T19:11:07.458Z,17.63
2023-03-31T19:13:35.912Z,18.10
2023-03-31T19:16:04.579Z,18.75
2023-03-31T19:18:32.901Z,18.35
2023-03-31T19:21:02.116Z,18.48
2023-03-31T19:23:31.766Z,18.85
2023-03-31T19:26:00.536Z,19.10
2023-03-31T19:28:30.347Z,20.77
2023-03-31T19:30:59.529Z,19.23
2023-03-31T19:33:27.728Z,19.30
2023-03-31T19:35:59.124Z,17.77
2023-03-31T19:38:31.888Z,17.23
2023-03-31T19:41:00.351Z,17.70
2023-03-31T19:43:30.316Z,18.10
2023-03-31T19:46:00.167Z,18.83
2023-03-31T19:48:31.379Z,18.15
2023-03-31T19:51:01.061Z,17.02
2023-03-31T19:53:30.430Z,18.35
2023-03-31T19:56:01.781Z,18.83
2023-03-31T19:58:30.902Z,18.40
2023-03-31T20:00:59.211Z,19.50
2023-03-31T20:03:28.211Z,20.52
2023-03-31T20:06:24.011Z,19.42
2023-03-31T20:08:58.078Z,18.88
2023-03-31T20:11:28.344Z,19.63
2023-03-31T20:13:58.088Z,20.77
2023-03-31T20:16:28.204Z,19.23
2023-03-31T20:18:59.196Z,19.10
2023-03-31T20:21:29.368Z,19.45
2023-03-31T20:23:58.951Z,20.38
2023-03-31T20:26:29.777Z,19.85
2023-03-31T20:29:01.832Z,21.17
2023-03-31T20:31:33.606Z,19.65
2023-03-31T20:34:02.101Z,19.05
2023-03-31T20:36:31.877Z,20.05
2023-03-31T20:39:04.233Z,21.25
2023-03-31T20:41:33.772Z,18.00
2023-03-31T20:44:02.101Z,18.40
2023-03-31T20:46:30.478Z,20.55
2023-03-31T20:48:59.468Z,18.92
2023-03-31T20:51:32.454Z,19.60
2023-03-31T20:54:01.823Z,18.67
2023-03-31T20:56:37.966Z,19.38
2023-03-31T20:59:11.229Z,19.83
2023-03-31T21:01:39.926Z,19.80
2023-03-31T21:04:11.082Z,19.20
2023-03-31T21:06:42.777Z,20.70
2023-03-31T21:09:14.537Z,18.42
2023-03-31T21:11:42.753Z,18.67
2023-03-31T21:14:16.472Z,18.77
2023-03-31T21:16:45.084Z,19.90
2023-03-31T21:19:13.374Z,19.33
2023-03-31T21:21:42.217Z,20.10
2023-03-31T21:24:12.736Z,19.40
2023-03-31T21:26:41.677Z,20.77
2023-03-31T21:29:10.115Z,18.30
2023-03-31T21:31:38.477Z,18.73
2023-03-31T21:34:06.775Z,18.20
2023-03-31T21:36:35.018Z,21.95
2023-03-31T21:39:03.183Z,23.13
2023-03-31T21:41:32.043Z,22.02
2023-03-31T21:44:02.563Z,23.92
2023-03-31T21:46:35.280Z,24.45
2023-03-31T21:49:03.602Z,22.90
2023-03-31T21:51:31.852Z,23.65
2023-03-31T21:54:00.028Z,23.65
2023-03-31T21:56:28.524Z,23.80
2023-03-31T21:59:04.364Z,23.10
2023-03-31T22:01:32.731Z,23.38
2023-03-31T22:04:01.027Z,23.83
2023-03-31T22:06:29.325Z,20.50
2023-03-31T22:08:57.505Z,21.35
2023-03-31T22:11:26.700Z,22.60
2023-03-31T22:13:54.850Z,21.50
2023-03-31T22:16:23.449Z,20.10
2023-03-31T22:18:52.892Z,20.70
2023-03-31T22:21:23.987Z,20.10
2023-03-31T22:24:00.428Z,19.33
2023-03-31T22:26:31.192Z,20.27
2023-03-31T22:28:59.465Z,20.35
2023-03-31T22:31:28.333Z,21.52
2023-03-31T22:33:56.497Z,21.77
2023-03-31T22:36:24.663Z,20.58
2023-03-31T22:38:53.678Z,20.45
2023-03-31T22:41:24.429Z,22.45
2023-03-31T22:43:52.622Z,24.55
2023-03-31T22:46:21.094Z,22.20
2023-03-31T22:48:50.422Z,23.20
2023-03-31T22:51:18.571Z,22.73
2023-03-31T22:53:51.691Z,22.98
2023-03-31T22:56:21.185Z,24.60
2023-03-31T22:58:51.297Z,22.25
2023-03-31T23:01:21.153Z,23.08
2023-03-31T23:03:50.099Z,23.58
2023-03-31T23:06:18.732Z,23.27
2023-03-31T23:08:49.006Z,24.27
2023-03-31T23:11:18.752Z,21.63
2023-03-31T23:13:47.458Z,23.05
2023-03-31T23:16:26.595Z,22.63
2023-03-31T23:18:55.897Z,22.75
2023-03-31T23:21:26.352Z,22.45
2023-03-31T23:23:57.087Z,22.90
2023-03-31T23:26:26.342Z,21.23
2023-03-31T23:28:55.461Z,21.67
2023-03-31T23:31:28.826Z,22.00
2023-03-31T23:36:25.872Z,23.30
2023-03-31T23:38:56.313Z,24.27
2023-03-31T23:41:26.382Z,22.92
2023-03-31T23:43:55.926Z,22.25
2023-03-31T23:46:25.917Z,25.58
2023-03-31T23:48:54.428Z,23.20
2023-03-31T23:51:22.792Z,23.33
2023-03-31T23:53:53.930Z,25.85
2023-03-31T23:56:22.339Z,25.50
2023-03-31T23:58:50.550Z,24.25
